This is the latest recevied weather packets stored in our database for station/object W1RCP. If no packets are shown the sender has not sent any weather packets the latest 1 day(s).
| Time | Temp. | Humidity | Pressure | Rain* | Wind** | Luminosity | Snow |
|---|---|---|---|---|---|---|---|
| 1778019259 | 28.89° C | 37% | 1024.7 hPa | 0 mm | 0.89 m/s, 185° | 262 W/m² | - |
| 1778018956 | 28.89° C | 38% | 1024.8 hPa | 0 mm | 0.45 m/s, 215° | 289 W/m² | - |
| 1778018653 | 28.89° C | 37% | 1024.8 hPa | 0 mm | 2.24 m/s, 198° | 318 W/m² | - |
| 1778018351 | 28.89° C | 36% | 1024.7 hPa | 0 mm | 1.79 m/s, 209° | 345 W/m² | - |
| 1778018049 | 28.89° C | 37% | 1024.8 hPa | 0 mm | 1.34 m/s, 185° | 319 W/m² | - |
| 1778017747 | 28.89° C | 37% | 1024.9 hPa | 0 mm | 1.79 m/s, 215° | 373 W/m² | - |
| 1778017444 | 28.89° C | 37% | 1024.9 hPa | 0 mm | 0.89 m/s, 222° | 390 W/m² | - |
| 1778017141 | 29.44° C | 36% | 1025 hPa | 0 mm | 0.89 m/s, 232° | 409 W/m² | - |
| 1778016839 | 29.44° C | 36% | 1024.8 hPa | 0 mm | 0.89 m/s, 208° | 430 W/m² | - |
| 1778016534 | 29.44° C | 34% | 1024.8 hPa | 0 mm | 1.34 m/s, 247° | 449 W/m² | - |
| 1778016232 | 30° C | 35% | 1024.8 hPa | 0 mm | 0.89 m/s, 204° | 468 W/m² | - |
| 1778015928 | 29.44° C | 35% | 1024.7 hPa | 0 mm | 0.89 m/s, 210° | 482 W/m² | - |
| 1778015626 | 30° C | 34% | 1024.6 hPa | 0 mm | 0.89 m/s, 266° | 502 W/m² | - |
| 1778015322 | 28.89° C | 34% | 1024.6 hPa | 0 mm | 0.89 m/s, 200° | 503 W/m² | - |
| 1778015019 | 28.89° C | 35% | 1024.8 hPa | 0 mm | 2.68 m/s, 273° | 518 W/m² | - |
| 1778014715 | 28.89° C | 38% | 1025 hPa | 0 mm | 0.89 m/s, 217° | 545 W/m² | - |
| 1778014414 | 29.44° C | 37% | 1025 hPa | 0 mm | 2.68 m/s, 216° | 567 W/m² | - |
| 1778014110 | 29.44° C | 36% | 1024.9 hPa | 0 mm | 0.89 m/s, 218° | 561 W/m² | - |
| 1778013808 | 28.89° C | 36% | 1025 hPa | 0 mm | 0.89 m/s, 229° | 578 W/m² | - |
| 1778013505 | 28.89° C | 36% | 1025 hPa | 0 mm | 1.79 m/s, 241° | 603 W/m² | - |
| 1778013202 | 29.44° C | 36% | 1025.1 hPa | 0 mm | 1.79 m/s, 228° | 633 W/m² | - |
| 1778012898 | 29.44° C | 36% | 1025.1 hPa | 0 mm | 1.34 m/s, 212° | 637 W/m² | - |
| 1778012594 | 29.44° C | 36% | 1025.3 hPa | 0 mm | 0.45 m/s, 225° | 604 W/m² | - |
| 1778012291 | 29.44° C | 36% | 1025.4 hPa | 0 mm | 1.34 m/s, 244° | 648 W/m² | - |
| 1778011988 | 28.89° C | 38% | 1025.6 hPa | 0 mm | 0.45 m/s, 198° | 680 W/m² | - |
* Rain latest hour (hover to see other rain measurements)
** Current wind speed in m/s (hover to see current wind gust speed)